createdAt,value
2019-03-18T00:01:54.864Z,99932.00
2019-03-18T00:04:25.491Z,99945.00
2019-03-18T00:06:58.514Z,99937.00
2019-03-18T00:09:29.060Z,99943.00
2019-03-18T00:12:02.194Z,99940.00
2019-03-18T00:14:32.746Z,99935.00
2019-03-18T00:17:03.199Z,99935.00
2019-03-18T00:19:33.849Z,99943.00
2019-03-18T00:22:04.423Z,99947.00
2019-03-18T00:24:35.012Z,99946.00
2019-03-18T00:27:05.532Z,99948.00
2019-03-18T00:29:35.908Z,99940.00
2019-03-18T00:32:07.195Z,99942.00
2019-03-18T00:34:37.724Z,99932.00
2019-03-18T00:37:08.558Z,99927.00
2019-03-18T00:39:39.106Z,99940.00
2019-03-18T00:42:09.810Z,99940.00
2019-03-18T00:44:40.592Z,99943.00
2019-03-18T00:47:11.179Z,99940.00
2019-03-18T00:49:41.658Z,99950.00
2019-03-18T00:52:12.290Z,99949.00
2019-03-18T00:54:42.764Z,99951.00
2019-03-18T00:57:13.325Z,99940.00
2019-03-18T00:59:44.022Z,99961.00
2019-03-18T01:02:14.608Z,99954.00
2019-03-18T01:04:45.227Z,99952.00
2019-03-18T01:07:17.224Z,99954.00
2019-03-18T01:09:47.730Z,99959.00
2019-03-18T01:12:18.462Z,99958.00
2019-03-18T01:14:48.880Z,99958.00
2019-03-18T01:17:21.411Z,99951.00
2019-03-18T01:19:52.052Z,99956.00
2019-03-18T01:22:22.497Z,99958.00
2019-03-18T01:24:52.944Z,99951.00
2019-03-18T01:27:25.322Z,99957.00
2019-03-18T01:29:55.684Z,99957.00
2019-03-18T01:32:26.207Z,99952.00
2019-03-18T01:34:56.788Z,99956.00
2019-03-18T01:37:27.938Z,99962.00
2019-03-18T01:40:00.365Z,99955.00
2019-03-18T01:42:31.270Z,99970.00
2019-03-18T01:45:01.762Z,99968.00
2019-03-18T01:47:32.552Z,99956.00
2019-03-18T01:50:03.042Z,99952.00
2019-03-18T01:52:33.619Z,99948.00
2019-03-18T01:55:04.156Z,99955.00
2019-03-18T01:57:34.574Z,99966.00
2019-03-18T02:00:05.674Z,99965.00
2019-03-18T02:02:36.702Z,99957.00
2019-03-18T02:05:07.120Z,99975.00
2019-03-18T02:07:38.170Z,99972.00
2019-03-18T02:10:09.697Z,99981.00
2019-03-18T02:12:40.591Z,99966.00
2019-03-18T02:15:11.581Z,99970.00
2019-03-18T02:17:42.102Z,99958.00
2019-03-18T02:20:12.980Z,99958.00
2019-03-18T02:22:43.502Z,99968.00
2019-03-18T02:25:13.992Z,99959.00
2019-03-18T02:27:44.556Z,99981.00
2019-03-18T02:30:15.762Z,99973.00
2019-03-18T02:32:46.146Z,99973.00
2019-03-18T02:35:16.771Z,99975.00
2019-03-18T02:37:50.034Z,99983.00
2019-03-18T02:40:20.908Z,99982.00
2019-03-18T02:42:51.515Z,99982.00
2019-03-18T02:45:24.854Z,99980.00
2019-03-18T02:47:54.688Z,99989.00
2019-03-18T02:50:25.231Z,99983.00
2019-03-18T02:52:55.675Z,99989.00
2019-03-18T02:55:26.414Z,99990.00
2019-03-18T02:57:58.140Z,99998.00
2019-03-18T03:00:28.607Z,100001.00
2019-03-18T03:02:59.387Z,100001.00
2019-03-18T03:05:30.221Z,100001.00
2019-03-18T03:08:00.621Z,100007.00
2019-03-18T03:10:31.043Z,100004.00
2019-03-18T03:13:01.694Z,100002.00
2019-03-18T03:15:32.409Z,100011.00
2019-03-18T03:18:02.888Z,100012.00
2019-03-18T03:20:33.481Z,100019.00
2019-03-18T03:23:04.174Z,100004.00
2019-03-18T03:25:34.595Z,100021.00
2019-03-18T03:28:05.128Z,100031.00
2019-03-18T03:30:35.787Z,100026.00
2019-03-18T03:33:06.261Z,100034.00
2019-03-18T03:35:37.060Z,100031.00
2019-03-18T03:38:07.778Z,100034.00
2019-03-18T03:40:38.601Z,100030.00
2019-03-18T03:43:09.017Z,100049.00
2019-03-18T03:45:39.430Z,100057.00
2019-03-18T03:48:10.380Z,100066.00
2019-03-18T03:50:41.041Z,100052.00
2019-03-18T03:53:11.446Z,100050.00
2019-03-18T03:55:41.949Z,100054.00
2019-03-18T03:58:12.575Z,100067.00
2019-03-18T04:00:43.458Z,100058.00
2019-03-18T04:03:13.913Z,100051.00
2019-03-18T04:05:44.479Z,100052.00
2019-03-18T04:08:16.208Z,100050.00
2019-03-18T04:10:46.625Z,100060.00
2019-03-18T04:13:17.804Z,100065.00
2019-03-18T04:15:48.661Z,100060.00
2019-03-18T04:18:22.082Z,100064.00
2019-03-18T04:20:52.584Z,100069.00
2019-03-18T04:23:23.000Z,100086.00
2019-03-18T04:25:53.597Z,100084.00
2019-03-18T04:28:24.148Z,100087.00
2019-03-18T04:30:54.965Z,100092.00
2019-03-18T04:33:25.492Z,100089.00
2019-03-18T04:35:56.058Z,100100.00
2019-03-18T04:38:26.784Z,100098.00
2019-03-18T04:40:57.343Z,100100.00
2019-03-18T04:43:27.731Z,100105.00
2019-03-18T04:45:58.416Z,100102.00
2019-03-18T04:48:28.847Z,100110.00
2019-03-18T04:50:59.291Z,100110.00
2019-03-18T04:53:29.693Z,100113.00
2019-03-18T04:55:59.977Z,100105.00
2019-03-18T04:58:30.357Z,100118.00
2019-03-18T05:01:00.455Z,100118.00
2019-03-18T05:03:30.677Z,100122.00
2019-03-18T05:06:01.127Z,100128.00
2019-03-18T05:08:32.025Z,100129.00
2019-03-18T05:11:02.382Z,100123.00
2019-03-18T05:13:32.463Z,100132.00
2019-03-18T05:16:02.636Z,100123.00
2019-03-18T05:18:32.703Z,100135.00
2019-03-18T05:21:02.883Z,100131.00
2019-03-18T05:23:33.025Z,100124.00
2019-03-18T05:26:03.177Z,100139.00
2019-03-18T05:28:33.569Z,100132.00
2019-03-18T05:31:03.891Z,100134.00
2019-03-18T05:33:34.440Z,100145.00
2019-03-18T05:36:04.762Z,100138.00
2019-03-18T05:38:35.646Z,100130.00
2019-03-18T05:41:06.297Z,100138.00
2019-03-18T05:43:37.103Z,100137.00
2019-03-18T05:46:07.888Z,100146.00
2019-03-18T05:48:38.193Z,100157.00
2019-03-18T05:51:08.824Z,100178.00
2019-03-18T05:53:43.010Z,100168.00
2019-03-18T05:56:13.778Z,100163.00
2019-03-18T05:58:44.792Z,100169.00
2019-03-18T06:01:15.342Z,100169.00
2019-03-18T06:03:46.435Z,100181.00
2019-03-18T06:06:17.401Z,100169.00
2019-03-18T06:08:48.264Z,100164.00
2019-03-18T06:11:19.577Z,100183.00
2019-03-18T06:13:50.566Z,100184.00
2019-03-18T06:16:21.754Z,100183.00
2019-03-18T06:18:53.954Z,100177.00
2019-03-18T06:21:25.161Z,100186.00
2019-03-18T06:23:56.161Z,100186.00
2019-03-18T06:26:27.068Z,100178.00
2019-03-18T06:28:57.994Z,100185.00
2019-03-18T06:31:28.882Z,100191.00
2019-03-18T06:33:59.933Z,100199.00
2019-03-18T06:36:30.778Z,100183.00
2019-03-18T06:39:02.107Z,100190.00
2019-03-18T06:41:33.028Z,100204.00
2019-03-18T06:44:04.000Z,100206.00
2019-03-18T06:46:34.983Z,100207.00
2019-03-18T06:49:06.150Z,100221.00
2019-03-18T06:51:37.187Z,100226.00
2019-03-18T06:54:08.086Z,100235.00
2019-03-18T06:56:38.830Z,100236.00
2019-03-18T06:59:09.724Z,100236.00
2019-03-18T07:01:44.180Z,100240.00
2019-03-18T07:04:14.983Z,100240.00
2019-03-18T07:06:46.180Z,100249.00
2019-03-18T07:09:17.216Z,100245.00
2019-03-18T07:11:48.213Z,100263.00
2019-03-18T07:14:21.992Z,100251.00
2019-03-18T07:16:52.687Z,100271.00
2019-03-18T07:19:23.748Z,100265.00
2019-03-18T07:21:55.066Z,100270.00
2019-03-18T07:24:25.724Z,100289.00
2019-03-18T07:26:56.966Z,100275.00
2019-03-18T07:29:27.824Z,100286.00
2019-03-18T07:31:58.602Z,100292.00
2019-03-18T07:34:29.598Z,100301.00
2019-03-18T07:37:00.796Z,100291.00
2019-03-18T07:39:31.516Z,100312.00
2019-03-18T07:42:02.389Z,100299.00
2019-03-18T07:44:33.279Z,100303.00
2019-03-18T07:47:04.410Z,100295.00
2019-03-18T07:49:35.913Z,100299.00
2019-03-18T07:52:08.232Z,100294.00
2019-03-18T07:54:39.066Z,100299.00
2019-03-18T07:57:09.874Z,100308.00
2019-03-18T07:59:41.122Z,100308.00
2019-03-18T08:02:12.229Z,100305.00
2019-03-18T08:04:43.438Z,100315.00
2019-03-18T08:07:14.424Z,100310.00
2019-03-18T08:09:45.385Z,100313.00
2019-03-18T08:12:15.765Z,100321.00
2019-03-18T08:14:49.717Z,100325.00
2019-03-18T08:17:22.391Z,100339.00
2019-03-18T08:19:53.440Z,100336.00
2019-03-18T08:22:25.657Z,100337.00
2019-03-18T08:24:56.587Z,100348.00
2019-03-18T08:27:27.696Z,100333.00
2019-03-18T08:29:59.116Z,100340.00
2019-03-18T08:32:30.056Z,100349.00
2019-03-18T08:35:01.442Z,100356.00
2019-03-18T08:37:32.596Z,100364.00
2019-03-18T08:40:03.714Z,100353.00
2019-03-18T08:42:35.396Z,100351.00
2019-03-18T08:45:07.090Z,100362.00
2019-03-18T08:47:40.858Z,100374.00
2019-03-18T08:50:12.874Z,100376.00
2019-03-18T08:52:43.959Z,100382.00
2019-03-18T08:55:14.831Z,100378.00
2019-03-18T08:57:46.110Z,100383.00
2019-03-18T09:00:17.228Z,100388.00
2019-03-18T09:02:50.626Z,100398.00
2019-03-18T09:05:21.826Z,100398.00
2019-03-18T09:07:52.792Z,100394.00
2019-03-18T09:10:23.489Z,100393.00
2019-03-18T09:12:54.740Z,100396.00
2019-03-18T09:15:28.140Z,100402.00
2019-03-18T09:17:59.109Z,100384.00
2019-03-18T09:20:29.900Z,100383.00
2019-03-18T09:23:01.687Z,100388.00
2019-03-18T09:25:32.918Z,100395.00
2019-03-18T09:28:04.096Z,100390.00
2019-03-18T09:30:36.366Z,100400.00
2019-03-18T09:33:07.271Z,100411.00
2019-03-18T09:35:37.707Z,100409.00
2019-03-18T09:38:08.897Z,100427.00
2019-03-18T09:40:40.155Z,100414.00
2019-03-18T09:43:10.777Z,100408.00
2019-03-18T09:45:42.280Z,100404.00
2019-03-18T09:48:14.055Z,100405.00
2019-03-18T09:50:45.022Z,100435.00
2019-03-18T09:53:15.843Z,100424.00
2019-03-18T09:55:46.639Z,100424.00
2019-03-18T09:58:17.584Z,100419.00
2019-03-18T10:00:48.365Z,100431.00
2019-03-18T10:03:19.525Z,100414.00
2019-03-18T10:05:50.396Z,100426.00
2019-03-18T10:08:21.620Z,100447.00
2019-03-18T10:10:52.779Z,100438.00
2019-03-18T10:13:26.119Z,100446.00
2019-03-18T10:15:58.793Z,100438.00
2019-03-18T10:18:32.562Z,100430.00
2019-03-18T10:21:03.705Z,100418.00
2019-03-18T10:23:34.617Z,100433.00
2019-03-18T10:26:05.523Z,100428.00
2019-03-18T10:28:35.881Z,100426.00
2019-03-18T10:31:06.507Z,100429.00
2019-03-18T10:33:37.181Z,100449.00
2019-03-18T10:36:08.035Z,100468.00
2019-03-18T10:38:38.801Z,100452.00
2019-03-18T10:41:10.749Z,100452.00
2019-03-18T10:43:43.135Z,100477.00
2019-03-18T10:46:16.268Z,100490.00
2019-03-18T10:48:47.230Z,100540.00
2019-03-18T10:51:18.176Z,100596.00
2019-03-18T10:53:48.773Z,100583.00
2019-03-18T10:56:20.938Z,100590.00
2019-03-18T10:58:51.565Z,100580.00
2019-03-18T11:01:22.038Z,100575.00
2019-03-18T11:03:52.622Z,100565.00
2019-03-18T11:06:23.281Z,100554.00
2019-03-18T11:08:54.057Z,100560.00
2019-03-18T11:11:26.440Z,100575.00
2019-03-18T11:13:57.051Z,100559.00
2019-03-18T11:16:27.641Z,100556.00
2019-03-18T11:18:58.047Z,100548.00
2019-03-18T11:21:29.144Z,100552.00
2019-03-18T11:23:59.697Z,100555.00
2019-03-18T11:26:30.135Z,100548.00
2019-03-18T11:29:00.768Z,100570.00
2019-03-18T11:31:31.815Z,100561.00
2019-03-18T11:34:02.399Z,100577.00
2019-03-18T11:36:33.161Z,100573.00
2019-03-18T11:39:04.648Z,100546.00
2019-03-18T11:41:38.207Z,100545.00
2019-03-18T11:44:11.530Z,100557.00
2019-03-18T11:46:42.283Z,100553.00
2019-03-18T11:49:13.189Z,100546.00
2019-03-18T11:51:44.011Z,100562.00
2019-03-18T11:54:15.003Z,100557.00
2019-03-18T11:56:47.616Z,100572.00
2019-03-18T11:59:21.161Z,100562.00
2019-03-18T12:01:52.680Z,100565.00
2019-03-18T12:04:32.608Z,100546.00
2019-03-18T12:07:01.981Z,100553.00
2019-03-18T12:09:35.114Z,100560.00
2019-03-18T12:12:06.829Z,100570.00
2019-03-18T12:14:37.651Z,100569.00
2019-03-18T12:17:08.389Z,100566.00
2019-03-18T12:19:39.173Z,100573.00
2019-03-18T12:22:09.895Z,100568.00
2019-03-18T12:24:40.755Z,100561.00
2019-03-18T12:27:13.009Z,100563.00
2019-03-18T12:29:45.409Z,100569.00
2019-03-18T12:32:16.448Z,100567.00
2019-03-18T12:34:47.390Z,100574.00
2019-03-18T12:37:18.365Z,100575.00
2019-03-18T12:39:49.397Z,100573.00
2019-03-18T12:42:20.081Z,100569.00
2019-03-18T12:44:50.795Z,100567.00
2019-03-18T12:47:21.797Z,100568.00
2019-03-18T12:49:52.642Z,100569.00
2019-03-18T12:52:23.326Z,100565.00
2019-03-18T12:54:54.010Z,100568.00
2019-03-18T12:57:25.097Z,100569.00
2019-03-18T12:59:56.031Z,100566.00
2019-03-18T13:02:27.005Z,100589.00
2019-03-18T13:04:57.823Z,100594.00
2019-03-18T13:07:28.335Z,100621.00
2019-03-18T13:09:59.021Z,100643.00
2019-03-18T13:12:29.457Z,100641.00
2019-03-18T13:15:00.000Z,100655.00
2019-03-18T13:17:30.582Z,100660.00
2019-03-18T13:20:03.222Z,100640.00
2019-03-18T13:22:33.793Z,100651.00
2019-03-18T13:25:04.585Z,100630.00
2019-03-18T13:27:35.896Z,100632.00
2019-03-18T13:30:11.796Z,100626.00
2019-03-18T13:32:42.546Z,100647.00
2019-03-18T13:35:13.180Z,100639.00
2019-03-18T13:37:44.698Z,100637.00
2019-03-18T13:40:15.862Z,100644.00
2019-03-18T13:42:46.512Z,100644.00
2019-03-18T13:45:17.485Z,100644.00
2019-03-18T13:47:48.227Z,100640.00
2019-03-18T13:50:19.635Z,100640.00
2019-03-18T13:52:50.335Z,100638.00
2019-03-18T13:55:22.716Z,100656.00
2019-03-18T13:57:54.106Z,100654.00
2019-03-18T14:00:26.126Z,100635.00
2019-03-18T14:02:57.014Z,100642.00
2019-03-18T14:05:27.955Z,100646.00
2019-03-18T14:08:00.683Z,100646.00
2019-03-18T14:10:30.915Z,100652.00
2019-03-18T14:13:01.785Z,100657.00
2019-03-18T14:15:32.283Z,100656.00
2019-03-18T14:18:03.205Z,100650.00
2019-03-18T14:20:33.877Z,100652.00
2019-03-18T14:23:06.038Z,100657.00
2019-03-18T14:25:36.900Z,100657.00
2019-03-18T14:28:07.674Z,100652.00
2019-03-18T14:30:38.826Z,100657.00
2019-03-18T14:33:09.501Z,100662.00
2019-03-18T14:35:40.221Z,100665.00
2019-03-18T14:38:10.810Z,100655.00
2019-03-18T14:40:41.767Z,100681.00
2019-03-18T14:43:12.423Z,100668.00
2019-03-18T14:45:43.228Z,100678.00
2019-03-18T14:48:14.371Z,100686.00
2019-03-18T14:50:45.106Z,100676.00
2019-03-18T14:53:15.683Z,100680.00
2019-03-18T14:55:46.575Z,100677.00
2019-03-18T14:58:17.085Z,100684.00
2019-03-18T15:00:48.154Z,100686.00
2019-03-18T15:03:18.900Z,100694.00
2019-03-18T15:05:49.839Z,100715.00
2019-03-18T15:08:20.776Z,100744.00
2019-03-18T15:10:51.751Z,100772.00
2019-03-18T15:13:30.780Z,100777.00
2019-03-18T15:15:55.137Z,100767.00
2019-03-18T15:18:25.934Z,100766.00
2019-03-18T15:20:57.231Z,100772.00
2019-03-18T15:23:27.832Z,100770.00
2019-03-18T15:25:58.401Z,100774.00
2019-03-18T15:28:29.715Z,100767.00
2019-03-18T15:31:00.583Z,100771.00
2019-03-18T15:33:31.474Z,100773.00
2019-03-18T15:36:02.083Z,100766.00
2019-03-18T15:38:33.163Z,100767.00
2019-03-18T15:41:04.103Z,100767.00
2019-03-18T15:43:35.827Z,100770.00
2019-03-18T15:46:08.401Z,100786.00
2019-03-18T15:48:39.235Z,100791.00
2019-03-18T15:51:09.955Z,100789.00
2019-03-18T15:53:40.803Z,100779.00
2019-03-18T15:56:12.525Z,100797.00
2019-03-18T15:58:43.381Z,100791.00
2019-03-18T16:01:14.446Z,100793.00
2019-03-18T16:03:45.619Z,100797.00
2019-03-18T16:06:16.847Z,100821.00
2019-03-18T16:08:50.360Z,100830.00
2019-03-18T16:11:20.915Z,100836.00
2019-03-18T16:13:51.819Z,100844.00
2019-03-18T16:16:23.179Z,100853.00
2019-03-18T16:18:57.198Z,100850.00
2019-03-18T16:21:28.945Z,100865.00
2019-03-18T16:23:59.809Z,100879.00
2019-03-18T16:26:30.910Z,100860.00
2019-03-18T16:29:02.189Z,100867.00
2019-03-18T16:31:33.419Z,100877.00
2019-03-18T16:34:04.205Z,100869.00
2019-03-18T16:36:36.413Z,100870.00
2019-03-18T16:39:08.347Z,100871.00
2019-03-18T16:41:39.635Z,100863.00
2019-03-18T16:44:13.296Z,100869.00
2019-03-18T16:46:45.321Z,100880.00
2019-03-18T16:49:16.081Z,100882.00
2019-03-18T16:51:47.124Z,100880.00
2019-03-18T16:54:18.107Z,100892.00
2019-03-18T16:56:49.115Z,100880.00
2019-03-18T16:59:19.629Z,100880.00
2019-03-18T17:01:50.284Z,100889.00
2019-03-18T17:04:20.927Z,100886.00
2019-03-18T17:06:54.601Z,100901.00
2019-03-18T17:09:25.810Z,100900.00
2019-03-18T17:11:56.719Z,100894.00
2019-03-18T17:14:27.580Z,100904.00
2019-03-18T17:16:59.966Z,100916.00
2019-03-18T17:19:30.493Z,100923.00
2019-03-18T17:22:01.585Z,100916.00
2019-03-18T17:24:32.412Z,100929.00
2019-03-18T17:27:03.471Z,100938.00
2019-03-18T17:29:35.867Z,100942.00
2019-03-18T17:32:07.333Z,100941.00
2019-03-18T17:34:38.774Z,100948.00
2019-03-18T17:37:09.497Z,100950.00
2019-03-18T17:39:40.207Z,100958.00
2019-03-18T17:42:10.617Z,100964.00
2019-03-18T17:44:40.952Z,100969.00
2019-03-18T17:47:13.736Z,100972.00
2019-03-18T17:49:44.215Z,100971.00
2019-03-18T17:52:14.825Z,100981.00
2019-03-18T17:54:45.126Z,100982.00
2019-03-18T17:57:15.324Z,100975.00
2019-03-18T17:59:45.613Z,100994.00
2019-03-18T18:02:16.377Z,100993.00
2019-03-18T18:04:46.759Z,100994.00
2019-03-18T18:07:17.345Z,100993.00
2019-03-18T18:09:47.567Z,101008.00
2019-03-18T18:12:18.079Z,101010.00
2019-03-18T18:14:48.784Z,101012.00
2019-03-18T18:17:19.223Z,101016.00
2019-03-18T18:19:50.521Z,101029.00
2019-03-18T18:22:27.268Z,101032.00
2019-03-18T18:24:58.321Z,101026.00
2019-03-18T18:27:29.893Z,101027.00
2019-03-18T18:30:00.381Z,101037.00
2019-03-18T18:32:30.937Z,101044.00
2019-03-18T18:35:04.631Z,101046.00
2019-03-18T18:37:35.564Z,101045.00
2019-03-18T18:40:06.550Z,101061.00
2019-03-18T18:42:37.201Z,101054.00
2019-03-18T18:45:08.077Z,101053.00
2019-03-18T18:47:38.500Z,101065.00
2019-03-18T18:50:10.007Z,101063.00
2019-03-18T18:52:40.617Z,101068.00
2019-03-18T18:55:11.440Z,101070.00
2019-03-18T18:57:41.741Z,101075.00
2019-03-18T19:00:14.559Z,101076.00
2019-03-18T19:02:46.706Z,101081.00
2019-03-18T19:05:17.520Z,101090.00
2019-03-18T19:07:48.741Z,101089.00
2019-03-18T19:10:19.545Z,101093.00
2019-03-18T19:12:50.747Z,101092.00
2019-03-18T19:15:24.081Z,101105.00
2019-03-18T19:17:53.801Z,101106.00
2019-03-18T19:20:24.601Z,101112.00
2019-03-18T19:22:58.154Z,101118.00
2019-03-18T19:25:28.893Z,101117.00
2019-03-18T19:28:00.992Z,101122.00
2019-03-18T19:30:31.369Z,101123.00
2019-03-18T19:33:02.869Z,101122.00
2019-03-18T19:35:33.167Z,101123.00
2019-03-18T19:38:04.815Z,101128.00
2019-03-18T19:40:35.373Z,101125.00
2019-03-18T19:43:06.014Z,101121.00
2019-03-18T19:45:36.596Z,101129.00
2019-03-18T19:48:07.309Z,101136.00
2019-03-18T19:50:37.630Z,101136.00
2019-03-18T19:53:08.060Z,101133.00
2019-03-18T19:55:40.222Z,101142.00
2019-03-18T19:58:10.831Z,101145.00
2019-03-18T20:00:41.217Z,101149.00
2019-03-18T20:03:11.681Z,101153.00
2019-03-18T20:05:42.058Z,101156.00
2019-03-18T20:08:12.316Z,101165.00
2019-03-18T20:10:43.053Z,101173.00
2019-03-18T20:13:13.588Z,101181.00
2019-03-18T20:15:43.823Z,101184.00
2019-03-18T20:18:14.038Z,101188.00
2019-03-18T20:20:44.497Z,101198.00
2019-03-18T20:23:14.941Z,101184.00
2019-03-18T20:25:45.377Z,101188.00
2019-03-18T20:28:15.683Z,101187.00
2019-03-18T20:30:46.225Z,101200.00
2019-03-18T20:33:18.264Z,101212.00
2019-03-18T20:35:50.332Z,101212.00
2019-03-18T20:38:22.969Z,101200.00
2019-03-18T20:40:53.303Z,101229.00
2019-03-18T20:43:23.722Z,101228.00
2019-03-18T20:45:54.354Z,101230.00
2019-03-18T20:48:24.593Z,101222.00
2019-03-18T20:50:56.639Z,101235.00
2019-03-18T20:53:26.950Z,101217.00
2019-03-18T20:55:57.373Z,101225.00
2019-03-18T20:58:27.797Z,101225.00
2019-03-18T21:00:59.393Z,101218.00
2019-03-18T21:03:30.303Z,101230.00
2019-03-18T21:06:00.678Z,101244.00
2019-03-18T21:08:35.066Z,101243.00
2019-03-18T21:11:05.670Z,101243.00
2019-03-18T21:13:39.578Z,101239.00
2019-03-18T21:16:11.544Z,101250.00
2019-03-18T21:18:43.993Z,101253.00
2019-03-18T21:21:13.959Z,101257.00
2019-03-18T21:23:44.439Z,101268.00
2019-03-18T21:26:14.955Z,101273.00
2019-03-18T21:28:45.255Z,101274.00
2019-03-18T21:31:15.824Z,101277.00
2019-03-18T21:33:46.361Z,101283.00
2019-03-18T21:36:32.838Z,101278.00
2019-03-18T21:38:50.913Z,101285.00
2019-03-18T21:41:23.043Z,101288.00
2019-03-18T21:43:53.357Z,101276.00
2019-03-18T21:46:23.844Z,101287.00
2019-03-18T21:48:54.297Z,101297.00
2019-03-18T21:51:24.754Z,101302.00
2019-03-18T21:53:55.346Z,101298.00
2019-03-18T21:56:25.759Z,101307.00
2019-03-18T21:58:56.293Z,101309.00
2019-03-18T22:01:26.662Z,101299.00
2019-03-18T22:03:57.007Z,101303.00
2019-03-18T22:06:27.422Z,101308.00
2019-03-18T22:09:01.599Z,101302.00
2019-03-18T22:11:32.225Z,101301.00
2019-03-18T22:14:02.740Z,101315.00
2019-03-18T22:16:33.095Z,101308.00
2019-03-18T22:19:03.493Z,101316.00
2019-03-18T22:21:33.980Z,101309.00
2019-03-18T22:24:04.603Z,101321.00
2019-03-18T22:26:35.130Z,101325.00
2019-03-18T22:29:05.690Z,101317.00
2019-03-18T22:31:36.506Z,101311.00
2019-03-18T22:34:11.265Z,101320.00
2019-03-18T22:36:38.770Z,101313.00
2019-03-18T22:39:09.854Z,101326.00
2019-03-18T22:41:41.650Z,101325.00
2019-03-18T22:44:11.949Z,101322.00
2019-03-18T22:46:42.327Z,101327.00
2019-03-18T22:49:12.652Z,101316.00
2019-03-18T22:51:43.757Z,101326.00
2019-03-18T22:54:14.302Z,101325.00
2019-03-18T22:56:44.602Z,101331.00
2019-03-18T22:59:14.958Z,101331.00
2019-03-18T23:01:45.535Z,101335.00
2019-03-18T23:04:15.945Z,101333.00
2019-03-18T23:06:46.733Z,101331.00
2019-03-18T23:09:17.134Z,101337.00
2019-03-18T23:11:48.716Z,101339.00
2019-03-18T23:14:19.141Z,101337.00
2019-03-18T23:16:49.648Z,101332.00
2019-03-18T23:19:21.015Z,101347.00
2019-03-18T23:21:51.746Z,101349.00
2019-03-18T23:24:23.608Z,101350.00
2019-03-18T23:26:55.762Z,101344.00
2019-03-18T23:29:26.514Z,101351.00
2019-03-18T23:31:57.337Z,101338.00
2019-03-18T23:34:28.016Z,101339.00
2019-03-18T23:36:58.494Z,101344.00
2019-03-18T23:39:32.286Z,101349.00
2019-03-18T23:42:03.906Z,101363.00
2019-03-18T23:44:35.898Z,101367.00
2019-03-18T23:47:06.503Z,101362.00
2019-03-18T23:49:37.044Z,101368.00
2019-03-18T23:52:07.477Z,101364.00
2019-03-18T23:54:37.694Z,101369.00
2019-03-18T23:57:08.224Z,101362.00
2019-03-18T23:59:38.831Z,101371.00
